sensor_id;sensor_type;location;lat;lon;timestamp;P1;durP1;ratioP1;P2;durP2;ratioP2
41572;SDS011;27286;47.870;19.006;2023-03-03T00:02:02;21.83;;;13.18;;
41572;SDS011;27286;47.870;19.006;2023-03-03T00:04:28;28.65;;;16.65;;
41572;SDS011;27286;47.870;19.006;2023-03-03T00:06:53;33.90;;;18.65;;
41572;SDS011;27286;47.870;19.006;2023-03-03T00:09:19;32.70;;;20.05;;
41572;SDS011;27286;47.870;19.006;2023-03-03T00:11:45;36.30;;;19.17;;
41572;SDS011;27286;47.870;19.006;2023-03-03T00:14:18;35.22;;;21.25;;
41572;SDS011;27286;47.870;19.006;2023-03-03T00:16:56;46.55;;;26.73;;
41572;SDS011;27286;47.870;19.006;2023-03-03T00:19:24;46.95;;;27.23;;
41572;SDS011;27286;47.870;19.006;2023-03-03T00:21:50;38.00;;;21.75;;
41572;SDS011;27286;47.870;19.006;2023-03-03T00:24:35;40.58;;;26.05;;
41572;SDS011;27286;47.870;19.006;2023-03-03T00:27:07;46.50;;;26.85;;
41572;SDS011;27286;47.870;19.006;2023-03-03T00:29:54;44.95;;;28.88;;
41572;SDS011;27286;47.870;19.006;2023-03-03T00:32:36;46.03;;;27.48;;
41572;SDS011;27286;47.870;19.006;2023-03-03T00:37:59;30.88;;;17.30;;
41572;SDS011;27286;47.870;19.006;2023-03-03T00:40:26;24.33;;;15.00;;
41572;SDS011;27286;47.870;19.006;2023-03-03T00:42:59;35.22;;;17.95;;
41572;SDS011;27286;47.870;19.006;2023-03-03T00:45:45;37.80;;;23.15;;
41572;SDS011;27286;47.870;19.006;2023-03-03T00:50:47;55.07;;;31.17;;
41572;SDS011;27286;47.870;19.006;2023-03-03T00:53:14;46.70;;;27.70;;
41572;SDS011;27286;47.870;19.006;2023-03-03T00:55:41;58.22;;;34.45;;
41572;SDS011;27286;47.870;19.006;2023-03-03T00:58:08;50.60;;;30.27;;
41572;SDS011;27286;47.870;19.006;2023-03-03T01:00:33;35.97;;;21.90;;
41572;SDS011;27286;47.870;19.006;2023-03-03T01:03:01;36.28;;;22.33;;
41572;SDS011;27286;47.870;19.006;2023-03-03T01:05:31;26.45;;;14.85;;
41572;SDS011;27286;47.870;19.006;2023-03-03T01:07:57;21.40;;;12.65;;
41572;SDS011;27286;47.870;19.006;2023-03-03T01:10:22;18.55;;;11.30;;
41572;SDS011;27286;47.870;19.006;2023-03-03T01:12:49;21.05;;;11.32;;
41572;SDS011;27286;47.870;19.006;2023-03-03T01:15:14;20.23;;;10.88;;
41572;SDS011;27286;47.870;19.006;2023-03-03T01:17:40;20.00;;;10.82;;
41572;SDS011;27286;47.870;19.006;2023-03-03T01:20:07;18.98;;;10.40;;
41572;SDS011;27286;47.870;19.006;2023-03-03T01:22:34;20.35;;;10.18;;
41572;SDS011;27286;47.870;19.006;2023-03-03T01:24:59;17.08;;;11.40;;
41572;SDS011;27286;47.870;19.006;2023-03-03T01:27:27;18.45;;;10.65;;
41572;SDS011;27286;47.870;19.006;2023-03-03T01:29:53;21.70;;;10.45;;
41572;SDS011;27286;47.870;19.006;2023-03-03T01:32:20;19.90;;;13.20;;
41572;SDS011;27286;47.870;19.006;2023-03-03T01:34:46;22.63;;;12.63;;
41572;SDS011;27286;47.870;19.006;2023-03-03T01:37:11;17.60;;;11.10;;
41572;SDS011;27286;47.870;19.006;2023-03-03T01:39:37;25.70;;;14.98;;
41572;SDS011;27286;47.870;19.006;2023-03-03T01:42:02;24.15;;;14.48;;
41572;SDS011;27286;47.870;19.006;2023-03-03T01:44:28;28.15;;;16.77;;
41572;SDS011;27286;47.870;19.006;2023-03-03T01:49:26;29.17;;;16.27;;
41572;SDS011;27286;47.870;19.006;2023-03-03T01:51:56;37.45;;;22.08;;
41572;SDS011;27286;47.870;19.006;2023-03-03T01:54:32;31.58;;;17.50;;
41572;SDS011;27286;47.870;19.006;2023-03-03T01:57:05;29.13;;;15.40;;
41572;SDS011;27286;47.870;19.006;2023-03-03T01:59:36;29.52;;;15.70;;
41572;SDS011;27286;47.870;19.006;2023-03-03T02:02:07;31.48;;;15.10;;
41572;SDS011;27286;47.870;19.006;2023-03-03T02:04:33;25.73;;;14.10;;
41572;SDS011;27286;47.870;19.006;2023-03-03T02:07:00;24.10;;;13.30;;
41572;SDS011;27286;47.870;19.006;2023-03-03T02:12:09;23.02;;;11.27;;
41572;SDS011;27286;47.870;19.006;2023-03-03T02:14:37;20.20;;;10.55;;
41572;SDS011;27286;47.870;19.006;2023-03-03T02:17:03;22.05;;;12.07;;
41572;SDS011;27286;47.870;19.006;2023-03-03T02:21:54;18.88;;;10.32;;
41572;SDS011;27286;47.870;19.006;2023-03-03T02:27:07;23.33;;;12.15;;
41572;SDS011;27286;47.870;19.006;2023-03-03T02:29:32;20.13;;;10.77;;
41572;SDS011;27286;47.870;19.006;2023-03-03T02:31:58;19.75;;;10.38;;
41572;SDS011;27286;47.870;19.006;2023-03-03T02:34:23;19.05;;;10.50;;
41572;SDS011;27286;47.870;19.006;2023-03-03T02:36:50;18.20;;;11.23;;
41572;SDS011;27286;47.870;19.006;2023-03-03T02:39:23;18.67;;;11.13;;
41572;SDS011;27286;47.870;19.006;2023-03-03T02:44:29;29.02;;;15.02;;
41572;SDS011;27286;47.870;19.006;2023-03-03T02:46:56;34.90;;;16.95;;
41572;SDS011;27286;47.870;19.006;2023-03-03T02:49:23;38.10;;;17.42;;
41572;SDS011;27286;47.870;19.006;2023-03-03T02:52:00;24.67;;;13.65;;
41572;SDS011;27286;47.870;19.006;2023-03-03T02:54:27;22.92;;;12.27;;
41572;SDS011;27286;47.870;19.006;2023-03-03T02:56:55;19.58;;;11.43;;
41572;SDS011;27286;47.870;19.006;2023-03-03T02:59:20;25.95;;;15.63;;
41572;SDS011;27286;47.870;19.006;2023-03-03T03:01:46;32.85;;;16.88;;
41572;SDS011;27286;47.870;19.006;2023-03-03T03:04:13;31.08;;;15.38;;
41572;SDS011;27286;47.870;19.006;2023-03-03T03:06:40;30.88;;;15.95;;
41572;SDS011;27286;47.870;19.006;2023-03-03T03:09:06;41.92;;;16.13;;
41572;SDS011;27286;47.870;19.006;2023-03-03T03:11:33;29.40;;;15.85;;
41572;SDS011;27286;47.870;19.006;2023-03-03T03:14:00;28.65;;;14.10;;
41572;SDS011;27286;47.870;19.006;2023-03-03T03:16:26;21.25;;;11.63;;
41572;SDS011;27286;47.870;19.006;2023-03-03T03:18:51;17.80;;;10.57;;
41572;SDS011;27286;47.870;19.006;2023-03-03T03:21:17;18.58;;;11.10;;
41572;SDS011;27286;47.870;19.006;2023-03-03T03:23:43;24.77;;;13.00;;
41572;SDS011;27286;47.870;19.006;2023-03-03T03:26:08;20.48;;;11.80;;
41572;SDS011;27286;47.870;19.006;2023-03-03T03:28:34;22.27;;;11.82;;
41572;SDS011;27286;47.870;19.006;2023-03-03T03:31:00;53.80;;;26.02;;
41572;SDS011;27286;47.870;19.006;2023-03-03T03:33:26;57.75;;;27.73;;
41572;SDS011;27286;47.870;19.006;2023-03-03T03:35:52;47.42;;;24.88;;
41572;SDS011;27286;47.870;19.006;2023-03-03T03:38:19;43.22;;;20.88;;
41572;SDS011;27286;47.870;19.006;2023-03-03T03:40:45;35.17;;;17.15;;
41572;SDS011;27286;47.870;19.006;2023-03-03T03:43:11;30.45;;;15.50;;
41572;SDS011;27286;47.870;19.006;2023-03-03T03:45:36;24.80;;;14.52;;
41572;SDS011;27286;47.870;19.006;2023-03-03T03:48:02;28.48;;;14.75;;
41572;SDS011;27286;47.870;19.006;2023-03-03T03:50:27;18.67;;;11.00;;
41572;SDS011;27286;47.870;19.006;2023-03-03T03:52:53;17.73;;;10.40;;
41572;SDS011;27286;47.870;19.006;2023-03-03T03:55:18;20.65;;;11.65;;
41572;SDS011;27286;47.870;19.006;2023-03-03T03:57:44;17.95;;;10.07;;
41572;SDS011;27286;47.870;19.006;2023-03-03T04:00:10;19.15;;;9.98;;
41572;SDS011;27286;47.870;19.006;2023-03-03T04:02:37;18.92;;;10.10;;
41572;SDS011;27286;47.870;19.006;2023-03-03T04:05:03;16.90;;;10.00;;
41572;SDS011;27286;47.870;19.006;2023-03-03T04:07:29;18.45;;;9.32;;
41572;SDS011;27286;47.870;19.006;2023-03-03T04:09:54;14.93;;;9.23;;
41572;SDS011;27286;47.870;19.006;2023-03-03T04:12:20;15.82;;;9.05;;
41572;SDS011;27286;47.870;19.006;2023-03-03T04:14:45;16.83;;;8.55;;
41572;SDS011;27286;47.870;19.006;2023-03-03T04:17:17;21.15;;;9.75;;
41572;SDS011;27286;47.870;19.006;2023-03-03T04:19:44;17.00;;;8.70;;
41572;SDS011;27286;47.870;19.006;2023-03-03T04:22:10;14.25;;;8.70;;
41572;SDS011;27286;47.870;19.006;2023-03-03T04:24:36;18.55;;;9.98;;
41572;SDS011;27286;47.870;19.006;2023-03-03T04:27:02;17.45;;;9.45;;
41572;SDS011;27286;47.870;19.006;2023-03-03T04:29:27;12.48;;;7.57;;
41572;SDS011;27286;47.870;19.006;2023-03-03T04:31:53;14.90;;;8.05;;
41572;SDS011;27286;47.870;19.006;2023-03-03T04:34:19;16.45;;;8.55;;
41572;SDS011;27286;47.870;19.006;2023-03-03T04:36:44;15.20;;;9.38;;
41572;SDS011;27286;47.870;19.006;2023-03-03T04:39:10;18.88;;;9.88;;
41572;SDS011;27286;47.870;19.006;2023-03-03T04:41:35;15.68;;;9.52;;
41572;SDS011;27286;47.870;19.006;2023-03-03T04:44:01;16.88;;;9.73;;
41572;SDS011;27286;47.870;19.006;2023-03-03T04:46:26;18.27;;;9.85;;
41572;SDS011;27286;47.870;19.006;2023-03-03T04:48:51;29.63;;;15.82;;
41572;SDS011;27286;47.870;19.006;2023-03-03T04:51:17;23.75;;;12.30;;
41572;SDS011;27286;47.870;19.006;2023-03-03T04:53:42;18.40;;;10.70;;
41572;SDS011;27286;47.870;19.006;2023-03-03T04:56:08;17.13;;;9.52;;
41572;SDS011;27286;47.870;19.006;2023-03-03T04:58:34;13.63;;;8.75;;
41572;SDS011;27286;47.870;19.006;2023-03-03T05:00:59;16.55;;;9.23;;
41572;SDS011;27286;47.870;19.006;2023-03-03T05:03:25;16.00;;;9.00;;
41572;SDS011;27286;47.870;19.006;2023-03-03T05:05:51;15.75;;;9.18;;
41572;SDS011;27286;47.870;19.006;2023-03-03T05:08:17;15.23;;;8.68;;
41572;SDS011;27286;47.870;19.006;2023-03-03T05:10:42;17.30;;;8.50;;
41572;SDS011;27286;47.870;19.006;2023-03-03T05:13:08;18.27;;;9.55;;
41572;SDS011;27286;47.870;19.006;2023-03-03T05:15:34;14.43;;;8.10;;
41572;SDS011;27286;47.870;19.006;2023-03-03T05:17:59;17.05;;;9.15;;
41572;SDS011;27286;47.870;19.006;2023-03-03T05:20:25;16.00;;;8.27;;
41572;SDS011;27286;47.870;19.006;2023-03-03T05:22:50;16.35;;;7.82;;
41572;SDS011;27286;47.870;19.006;2023-03-03T05:25:16;16.80;;;8.20;;
41572;SDS011;27286;47.870;19.006;2023-03-03T05:27:42;14.10;;;7.82;;
41572;SDS011;27286;47.870;19.006;2023-03-03T05:30:08;15.50;;;8.77;;
41572;SDS011;27286;47.870;19.006;2023-03-03T05:32:34;17.30;;;9.27;;
41572;SDS011;27286;47.870;19.006;2023-03-03T05:35:00;16.50;;;8.93;;
41572;SDS011;27286;47.870;19.006;2023-03-03T05:37:26;15.55;;;8.95;;
41572;SDS011;27286;47.870;19.006;2023-03-03T05:39:51;18.58;;;10.38;;
41572;SDS011;27286;47.870;19.006;2023-03-03T05:42:16;17.88;;;9.38;;
41572;SDS011;27286;47.870;19.006;2023-03-03T05:44:42;16.38;;;8.60;;
41572;SDS011;27286;47.870;19.006;2023-03-03T05:47:08;15.70;;;9.38;;
41572;SDS011;27286;47.870;19.006;2023-03-03T05:49:33;18.98;;;9.32;;
41572;SDS011;27286;47.870;19.006;2023-03-03T05:51:59;22.00;;;9.00;;
41572;SDS011;27286;47.870;19.006;2023-03-03T05:54:25;21.70;;;9.77;;
41572;SDS011;27286;47.870;19.006;2023-03-03T05:56:50;18.15;;;10.27;;
41572;SDS011;27286;47.870;19.006;2023-03-03T05:59:16;20.67;;;11.45;;
41572;SDS011;27286;47.870;19.006;2023-03-03T06:01:41;23.90;;;12.35;;
41572;SDS011;27286;47.870;19.006;2023-03-03T06:04:06;19.15;;;10.02;;
41572;SDS011;27286;47.870;19.006;2023-03-03T06:06:32;15.45;;;9.13;;
41572;SDS011;27286;47.870;19.006;2023-03-03T06:08:58;15.85;;;9.93;;
41572;SDS011;27286;47.870;19.006;2023-03-03T06:11:23;16.70;;;10.30;;
41572;SDS011;27286;47.870;19.006;2023-03-03T06:13:49;17.58;;;9.18;;
41572;SDS011;27286;47.870;19.006;2023-03-03T06:16:14;17.17;;;10.05;;
41572;SDS011;27286;47.870;19.006;2023-03-03T06:18:40;12.52;;;8.48;;
41572;SDS011;27286;47.870;19.006;2023-03-03T06:21:05;18.20;;;10.35;;
41572;SDS011;27286;47.870;19.006;2023-03-03T06:23:31;22.00;;;12.13;;
41572;SDS011;27286;47.870;19.006;2023-03-03T06:25:56;39.13;;;20.42;;
41572;SDS011;27286;47.870;19.006;2023-03-03T06:28:22;52.95;;;26.75;;
41572;SDS011;27286;47.870;19.006;2023-03-03T06:30:51;51.47;;;25.45;;
41572;SDS011;27286;47.870;19.006;2023-03-03T06:33:17;43.30;;;25.15;;
41572;SDS011;27286;47.870;19.006;2023-03-03T06:35:43;38.42;;;23.60;;
41572;SDS011;27286;47.870;19.006;2023-03-03T06:38:08;30.85;;;17.50;;
41572;SDS011;27286;47.870;19.006;2023-03-03T06:40:33;19.75;;;9.85;;
41572;SDS011;27286;47.870;19.006;2023-03-03T06:42:59;17.45;;;10.40;;
41572;SDS011;27286;47.870;19.006;2023-03-03T06:45:27;14.82;;;8.88;;
41572;SDS011;27286;47.870;19.006;2023-03-03T06:47:52;17.95;;;10.50;;
41572;SDS011;27286;47.870;19.006;2023-03-03T06:50:18;19.92;;;9.43;;
41572;SDS011;27286;47.870;19.006;2023-03-03T06:52:44;17.80;;;10.88;;
41572;SDS011;27286;47.870;19.006;2023-03-03T06:55:16;22.67;;;12.63;;
41572;SDS011;27286;47.870;19.006;2023-03-03T06:57:45;22.67;;;15.02;;
41572;SDS011;27286;47.870;19.006;2023-03-03T07:02:39;32.38;;;20.60;;
41572;SDS011;27286;47.870;19.006;2023-03-03T07:05:06;72.10;;;43.97;;
41572;SDS011;27286;47.870;19.006;2023-03-03T07:07:38;113.70;;;64.13;;
41572;SDS011;27286;47.870;19.006;2023-03-03T07:10:12;104.35;;;58.88;;
41572;SDS011;27286;47.870;19.006;2023-03-03T07:12:44;78.35;;;50.35;;
41572;SDS011;27286;47.870;19.006;2023-03-03T07:17:49;62.63;;;42.50;;
41572;SDS011;27286;47.870;19.006;2023-03-03T07:22:53;60.07;;;36.73;;
41572;SDS011;27286;47.870;19.006;2023-03-03T07:25:21;48.67;;;31.48;;
41572;SDS011;27286;47.870;19.006;2023-03-03T07:28:38;40.13;;;24.77;;
41572;SDS011;27286;47.870;19.006;2023-03-03T07:30:51;44.83;;;29.65;;
41572;SDS011;27286;47.870;19.006;2023-03-03T07:33:19;50.63;;;34.50;;
41572;SDS011;27286;47.870;19.006;2023-03-03T07:36:57;73.28;;;46.03;;
41572;SDS011;27286;47.870;19.006;2023-03-03T07:42:16;40.22;;;25.52;;
41572;SDS011;27286;47.870;19.006;2023-03-03T07:45:27;36.50;;;25.00;;
41572;SDS011;27286;47.870;19.006;2023-03-03T07:51:01;21.88;;;16.70;;
41572;SDS011;27286;47.870;19.006;2023-03-03T07:53:30;21.23;;;15.98;;
41572;SDS011;27286;47.870;19.006;2023-03-03T07:56:00;21.52;;;15.40;;
41572;SDS011;27286;47.870;19.006;2023-03-03T07:58:38;19.65;;;13.85;;
41572;SDS011;27286;47.870;19.006;2023-03-03T08:03:55;16.23;;;11.63;;
41572;SDS011;27286;47.870;19.006;2023-03-03T08:11:46;16.92;;;13.05;;
41572;SDS011;27286;47.870;19.006;2023-03-03T08:14:15;17.80;;;12.63;;
41572;SDS011;27286;47.870;19.006;2023-03-03T08:16:49;24.80;;;13.57;;
41572;SDS011;27286;47.870;19.006;2023-03-03T08:19:14;15.32;;;12.32;;
41572;SDS011;27286;47.870;19.006;2023-03-03T08:21:42;15.15;;;11.23;;
41572;SDS011;27286;47.870;19.006;2023-03-03T08:24:07;18.40;;;10.52;;
41572;SDS011;27286;47.870;19.006;2023-03-03T08:26:33;11.65;;;9.90;;
41572;SDS011;27286;47.870;19.006;2023-03-03T08:28:58;14.05;;;10.38;;
41572;SDS011;27286;47.870;19.006;2023-03-03T08:31:25;11.88;;;7.68;;
41572;SDS011;27286;47.870;19.006;2023-03-03T08:33:50;12.82;;;6.57;;
41572;SDS011;27286;47.870;19.006;2023-03-03T08:36:16;16.60;;;7.43;;
41572;SDS011;27286;47.870;19.006;2023-03-03T08:38:41;13.25;;;7.47;;
41572;SDS011;27286;47.870;19.006;2023-03-03T08:41:07;11.07;;;8.73;;
41572;SDS011;27286;47.870;19.006;2023-03-03T08:43:33;12.45;;;7.15;;
41572;SDS011;27286;47.870;19.006;2023-03-03T08:45:59;8.57;;;6.88;;
41572;SDS011;27286;47.870;19.006;2023-03-03T08:48:27;11.13;;;7.05;;
41572;SDS011;27286;47.870;19.006;2023-03-03T08:50:53;10.68;;;7.57;;
41572;SDS011;27286;47.870;19.006;2023-03-03T08:53:19;11.13;;;6.53;;
41572;SDS011;27286;47.870;19.006;2023-03-03T08:55:45;12.18;;;7.97;;
41572;SDS011;27286;47.870;19.006;2023-03-03T08:58:11;9.18;;;6.55;;
41572;SDS011;27286;47.870;19.006;2023-03-03T09:00:38;8.77;;;4.70;;
41572;SDS011;27286;47.870;19.006;2023-03-03T09:03:03;6.43;;;4.93;;
41572;SDS011;27286;47.870;19.006;2023-03-03T09:05:33;9.40;;;5.55;;
41572;SDS011;27286;47.870;19.006;2023-03-03T09:07:59;9.23;;;5.40;;
41572;SDS011;27286;47.870;19.006;2023-03-03T09:10:26;8.27;;;5.93;;
41572;SDS011;27286;47.870;19.006;2023-03-03T09:12:54;10.45;;;7.63;;
41572;SDS011;27286;47.870;19.006;2023-03-03T09:15:32;9.27;;;5.63;;
41572;SDS011;27286;47.870;19.006;2023-03-03T09:18:09;13.27;;;6.18;;
41572;SDS011;27286;47.870;19.006;2023-03-03T09:20:41;7.00;;;5.40;;
41572;SDS011;27286;47.870;19.006;2023-03-03T09:23:20;8.25;;;6.10;;
41572;SDS011;27286;47.870;19.006;2023-03-03T09:25:52;12.23;;;6.20;;
41572;SDS011;27286;47.870;19.006;2023-03-03T09:28:30;8.60;;;6.18;;
41572;SDS011;27286;47.870;19.006;2023-03-03T09:30:59;11.07;;;6.50;;
41572;SDS011;27286;47.870;19.006;2023-03-03T09:33:28;11.75;;;7.28;;
41572;SDS011;27286;47.870;19.006;2023-03-03T09:36:04;9.38;;;6.65;;
41572;SDS011;27286;47.870;19.006;2023-03-03T09:38:45;8.90;;;7.13;;
41572;SDS011;27286;47.870;19.006;2023-03-03T09:57:38;13.55;;;9.95;;
41572;SDS011;27286;47.870;19.006;2023-03-03T10:03:04;10.13;;;7.13;;
41572;SDS011;27286;47.870;19.006;2023-03-03T10:08:45;8.35;;;6.88;;
41572;SDS011;27286;47.870;19.006;2023-03-03T10:11:31;13.60;;;6.95;;
41572;SDS011;27286;47.870;19.006;2023-03-03T10:14:29;15.13;;;7.75;;
41572;SDS011;27286;47.870;19.006;2023-03-03T10:22:55;15.00;;;8.82;;
41572;SDS011;27286;47.870;19.006;2023-03-03T10:37:14;12.98;;;9.88;;
41572;SDS011;27286;47.870;19.006;2023-03-03T10:51:23;15.30;;;9.90;;
41572;SDS011;27286;47.870;19.006;2023-03-03T10:56:28;10.52;;;9.07;;
41572;SDS011;27286;47.870;19.006;2023-03-03T11:01:49;17.20;;;13.75;;
41572;SDS011;27286;47.870;19.006;2023-03-03T11:15:29;18.98;;;11.48;;
41572;SDS011;27286;47.870;19.006;2023-03-03T11:21:09;16.15;;;11.65;;
41572;SDS011;27286;47.870;19.006;2023-03-03T11:23:48;17.88;;;13.93;;
41572;SDS011;27286;47.870;19.006;2023-03-03T11:39:56;26.08;;;19.60;;
41572;SDS011;27286;47.870;19.006;2023-03-03T11:42:31;29.25;;;24.48;;
41572;SDS011;27286;47.870;19.006;2023-03-03T11:45:00;17.27;;;11.35;;
41572;SDS011;27286;47.870;19.006;2023-03-03T11:53:30;24.48;;;16.15;;
41572;SDS011;27286;47.870;19.006;2023-03-03T11:56:23;14.43;;;12.35;;
41572;SDS011;27286;47.870;19.006;2023-03-03T12:04:04;21.00;;;16.15;;
41572;SDS011;27286;47.870;19.006;2023-03-03T12:12:13;23.00;;;14.70;;
41572;SDS011;27286;47.870;19.006;2023-03-03T12:14:49;17.38;;;13.80;;
41572;SDS011;27286;47.870;19.006;2023-03-03T12:20:17;18.90;;;13.32;;
41572;SDS011;27286;47.870;19.006;2023-03-03T12:25:35;18.73;;;14.63;;
41572;SDS011;27286;47.870;19.006;2023-03-03T12:28:10;19.15;;;15.73;;
41572;SDS011;27286;47.870;19.006;2023-03-03T12:30:54;19.30;;;14.63;;
41572;SDS011;27286;47.870;19.006;2023-03-03T12:45:20;20.20;;;15.35;;
41572;SDS011;27286;47.870;19.006;2023-03-03T12:47:49;21.38;;;15.25;;
41572;SDS011;27286;47.870;19.006;2023-03-03T12:50:24;46.00;;;17.38;;
41572;SDS011;27286;47.870;19.006;2023-03-03T12:55:55;19.85;;;12.93;;
41572;SDS011;27286;47.870;19.006;2023-03-03T13:01:25;16.23;;;12.25;;
41572;SDS011;27286;47.870;19.006;2023-03-03T13:04:31;17.63;;;13.32;;
41572;SDS011;27286;47.870;19.006;2023-03-03T13:14:51;17.35;;;13.10;;
41572;SDS011;27286;47.870;19.006;2023-03-03T13:20:33;16.25;;;11.40;;
41572;SDS011;27286;47.870;19.006;2023-03-03T13:31:56;24.77;;;15.60;;
41572;SDS011;27286;47.870;19.006;2023-03-03T13:34:42;19.55;;;14.00;;
41572;SDS011;27286;47.870;19.006;2023-03-03T13:37:20;30.42;;;24.13;;
41572;SDS011;27286;47.870;19.006;2023-03-03T13:39:53;36.15;;;26.88;;
41572;SDS011;27286;47.870;19.006;2023-03-03T13:42:37;35.88;;;28.70;;
41572;SDS011;27286;47.870;19.006;2023-03-03T13:45:12;17.00;;;11.57;;
41572;SDS011;27286;47.870;19.006;2023-03-03T13:50:56;18.52;;;12.90;;
41572;SDS011;27286;47.870;19.006;2023-03-03T13:53:45;26.35;;;13.82;;
41572;SDS011;27286;47.870;19.006;2023-03-03T13:56:26;16.98;;;13.43;;
41572;SDS011;27286;47.870;19.006;2023-03-03T14:07:17;16.90;;;12.45;;
41572;SDS011;27286;47.870;19.006;2023-03-03T14:15:29;19.33;;;11.57;;
41572;SDS011;27286;47.870;19.006;2023-03-03T14:20:39;17.65;;;11.75;;
41572;SDS011;27286;47.870;19.006;2023-03-03T14:23:10;14.45;;;11.63;;
41572;SDS011;27286;47.870;19.006;2023-03-03T14:25:57;19.80;;;11.13;;
41572;SDS011;27286;47.870;19.006;2023-03-03T14:28:36;19.98;;;14.02;;
41572;SDS011;27286;47.870;19.006;2023-03-03T14:31:38;28.67;;;18.77;;
41572;SDS011;27286;47.870;19.006;2023-03-03T14:36:37;19.38;;;12.48;;
41572;SDS011;27286;47.870;19.006;2023-03-03T14:41:48;25.42;;;16.27;;
41572;SDS011;27286;47.870;19.006;2023-03-03T14:44:21;25.42;;;12.48;;
41572;SDS011;27286;47.870;19.006;2023-03-03T14:49:34;27.30;;;12.82;;
41572;SDS011;27286;47.870;19.006;2023-03-03T14:54:46;22.58;;;15.98;;
41572;SDS011;27286;47.870;19.006;2023-03-03T14:57:36;21.48;;;16.45;;
41572;SDS011;27286;47.870;19.006;2023-03-03T15:02:37;20.10;;;15.30;;
41572;SDS011;27286;47.870;19.006;2023-03-03T15:07:54;22.80;;;14.73;;
41572;SDS011;27286;47.870;19.006;2023-03-03T15:10:33;17.58;;;14.57;;
41572;SDS011;27286;47.870;19.006;2023-03-03T15:21:39;20.73;;;14.65;;
41572;SDS011;27286;47.870;19.006;2023-03-03T15:24:33;22.05;;;14.50;;
41572;SDS011;27286;47.870;19.006;2023-03-03T15:30:41;24.30;;;19.25;;
41572;SDS011;27286;47.870;19.006;2023-03-03T15:35:51;40.03;;;25.60;;
41572;SDS011;27286;47.870;19.006;2023-03-03T15:41:04;28.02;;;18.92;;
41572;SDS011;27286;47.870;19.006;2023-03-03T15:47:03;30.77;;;21.90;;
41572;SDS011;27286;47.870;19.006;2023-03-03T15:50:00;99.15;;;67.93;;
41572;SDS011;27286;47.870;19.006;2023-03-03T15:55:13;51.80;;;35.00;;
41572;SDS011;27286;47.870;19.006;2023-03-03T16:02:56;41.13;;;27.27;;
41572;SDS011;27286;47.870;19.006;2023-03-03T16:06:00;44.45;;;30.38;;
41572;SDS011;27286;47.870;19.006;2023-03-03T16:08:22;60.63;;;40.15;;
41572;SDS011;27286;47.870;19.006;2023-03-03T16:13:53;62.67;;;38.45;;
41572;SDS011;27286;47.870;19.006;2023-03-03T16:17:00;52.40;;;35.00;;
41572;SDS011;27286;47.870;19.006;2023-03-03T16:19:39;37.97;;;29.08;;
41572;SDS011;27286;47.870;19.006;2023-03-03T16:30:24;37.42;;;24.13;;
41572;SDS011;27286;47.870;19.006;2023-03-03T16:35:58;35.33;;;23.52;;
41572;SDS011;27286;47.870;19.006;2023-03-03T16:41:00;60.72;;;34.25;;
41572;SDS011;27286;47.870;19.006;2023-03-03T16:49:29;105.85;;;60.20;;
41572;SDS011;27286;47.870;19.006;2023-03-03T16:59:49;52.03;;;32.40;;
41572;SDS011;27286;47.870;19.006;2023-03-03T17:11:54;60.03;;;35.08;;
41572;SDS011;27286;47.870;19.006;2023-03-03T17:39:27;42.42;;;27.90;;
41572;SDS011;27286;47.870;19.006;2023-03-03T18:04:06;50.75;;;30.77;;
41572;SDS011;27286;47.870;19.006;2023-03-03T18:09:40;59.72;;;39.30;;
41572;SDS011;27286;47.870;19.006;2023-03-03T18:18:04;66.85;;;42.67;;
41572;SDS011;27286;47.870;19.006;2023-03-03T18:31:43;81.65;;;46.10;;
41572;SDS011;27286;47.870;19.006;2023-03-03T18:37:10;67.65;;;41.95;;
41572;SDS011;27286;47.870;19.006;2023-03-03T18:50:33;59.15;;;38.45;;
41572;SDS011;27286;47.870;19.006;2023-03-03T18:58:27;46.75;;;29.52;;
41572;SDS011;27286;47.870;19.006;2023-03-03T19:09:00;57.90;;;38.17;;
41572;SDS011;27286;47.870;19.006;2023-03-03T19:12:10;54.33;;;34.40;;
41572;SDS011;27286;47.870;19.006;2023-03-03T19:16:51;58.22;;;33.08;;
41572;SDS011;27286;47.870;19.006;2023-03-03T19:19:19;58.58;;;36.38;;
41572;SDS011;27286;47.870;19.006;2023-03-03T19:22:13;62.03;;;38.55;;
41572;SDS011;27286;47.870;19.006;2023-03-03T19:30:38;49.00;;;31.63;;
41572;SDS011;27286;47.870;19.006;2023-03-03T19:41:20;92.00;;;54.78;;
41572;SDS011;27286;47.870;19.006;2023-03-03T19:44:33;45.15;;;29.15;;
41572;SDS011;27286;47.870;19.006;2023-03-03T19:50:17;44.67;;;27.40;;
41572;SDS011;27286;47.870;19.006;2023-03-03T19:52:49;51.33;;;27.60;;
41572;SDS011;27286;47.870;19.006;2023-03-03T19:55:48;45.13;;;27.05;;
41572;SDS011;27286;47.870;19.006;2023-03-03T19:58:29;41.80;;;25.30;;
41572;SDS011;27286;47.870;19.006;2023-03-03T20:12:25;42.58;;;25.20;;
41572;SDS011;27286;47.870;19.006;2023-03-03T20:15:11;42.65;;;24.08;;
41572;SDS011;27286;47.870;19.006;2023-03-03T20:23:44;44.08;;;26.00;;
41572;SDS011;27286;47.870;19.006;2023-03-03T20:31:38;45.67;;;29.05;;
41572;SDS011;27286;47.870;19.006;2023-03-03T20:34:36;53.47;;;31.73;;
41572;SDS011;27286;47.870;19.006;2023-03-03T20:42:50;49.78;;;30.00;;
41572;SDS011;27286;47.870;19.006;2023-03-03T20:59:42;45.47;;;27.58;;
41572;SDS011;27286;47.870;19.006;2023-03-03T21:02:37;45.55;;;27.42;;
41572;SDS011;27286;47.870;19.006;2023-03-03T21:05:20;39.22;;;24.75;;
41572;SDS011;27286;47.870;19.006;2023-03-03T21:07:57;45.05;;;24.48;;
41572;SDS011;27286;47.870;19.006;2023-03-03T21:10:34;45.30;;;26.45;;
41572;SDS011;27286;47.870;19.006;2023-03-03T21:18:41;39.88;;;24.33;;
41572;SDS011;27286;47.870;19.006;2023-03-03T21:21:12;45.35;;;25.85;;
41572;SDS011;27286;47.870;19.006;2023-03-03T21:23:38;37.40;;;24.77;;
41572;SDS011;27286;47.870;19.006;2023-03-03T21:26:03;44.05;;;25.70;;
41572;SDS011;27286;47.870;19.006;2023-03-03T21:28:30;42.25;;;25.20;;
41572;SDS011;27286;47.870;19.006;2023-03-03T21:36:24;42.47;;;24.05;;
41572;SDS011;27286;47.870;19.006;2023-03-03T21:39:23;39.50;;;23.15;;
41572;SDS011;27286;47.870;19.006;2023-03-03T21:41:54;45.72;;;26.20;;
41572;SDS011;27286;47.870;19.006;2023-03-03T21:44:34;43.47;;;24.70;;
41572;SDS011;27286;47.870;19.006;2023-03-03T21:47:08;47.55;;;26.15;;
41572;SDS011;27286;47.870;19.006;2023-03-03T21:49:38;44.13;;;26.77;;
41572;SDS011;27286;47.870;19.006;2023-03-03T21:52:06;44.53;;;25.00;;
41572;SDS011;27286;47.870;19.006;2023-03-03T21:54:31;36.70;;;22.67;;
41572;SDS011;27286;47.870;19.006;2023-03-03T21:56:57;42.45;;;25.02;;
41572;SDS011;27286;47.870;19.006;2023-03-03T21:59:22;44.85;;;24.17;;
41572;SDS011;27286;47.870;19.006;2023-03-03T22:01:48;39.88;;;23.20;;
41572;SDS011;27286;47.870;19.006;2023-03-03T22:04:13;57.20;;;32.28;;
41572;SDS011;27286;47.870;19.006;2023-03-03T22:06:38;57.13;;;33.65;;
41572;SDS011;27286;47.870;19.006;2023-03-03T22:09:04;68.97;;;41.72;;
41572;SDS011;27286;47.870;19.006;2023-03-03T22:11:30;44.80;;;25.88;;
41572;SDS011;27286;47.870;19.006;2023-03-03T22:13:55;53.42;;;29.27;;